Prairie Rose, North Dakota
Current Conditions -  °F | °C
As of 10:01 PM on Wednesday 28 Jan 2015 (Local Time) from KFAR Reporting Station
Overcast Overcast  
Wind Chill: -8°   Ceiling: 900
Heat Index: -1°   Visibility: 10mi
Dew Point: -2°   Wind: 22mph
Humidity: 89%   Direction: 320°NW
Pressure: 30.01"   Gusts: NA
Location:  46.8079°N, 96.8643°W
Report Text: KFAR 290401Z 32019KT 10SM BKN009 OVC014 M01/M02 A3001 RMK AO2 T10061022
Loading
Personal Weather Stations






























Interactive Weather Map New forecast layout! Learn more

10-Day Weather Forecast

Advertisements
Track Severe Weather on mobile